createdAt,value
2023-02-23T00:02:25.383Z,9.67
2023-02-23T00:05:31.522Z,8.97
2023-02-23T00:08:36.060Z,10.50
2023-02-23T00:11:38.009Z,11.80
2023-02-23T00:14:39.780Z,9.60
2023-02-23T00:17:41.867Z,8.83
2023-02-23T00:20:47.981Z,7.97
2023-02-23T00:23:53.628Z,11.03
2023-02-23T00:26:55.484Z,8.83
2023-02-23T00:29:57.090Z,9.03
2023-02-23T00:32:58.698Z,13.33
2023-02-23T00:36:08.318Z,8.73
2023-02-23T00:39:23.311Z,9.47
2023-02-23T00:42:29.232Z,12.47
2023-02-23T00:45:30.943Z,11.63
2023-02-23T00:48:33.467Z,11.87
2023-02-23T00:51:35.151Z,10.80
2023-02-23T00:54:36.732Z,12.93
2023-02-23T00:57:38.678Z,11.83
2023-02-23T01:00:43.237Z,14.47
2023-02-23T01:03:45.294Z,13.17
2023-02-23T01:06:46.985Z,14.67
2023-02-23T01:09:48.900Z,11.00
2023-02-23T01:12:51.011Z,12.43
2023-02-23T01:15:52.828Z,13.23
2023-02-23T01:18:58.874Z,14.10
2023-02-23T01:22:03.464Z,11.50
2023-02-23T01:25:05.291Z,13.10
2023-02-23T01:28:09.049Z,12.70
2023-02-23T01:31:12.697Z,13.50
2023-02-23T01:34:14.831Z,13.07
2023-02-23T01:37:16.458Z,11.67
2023-02-23T01:40:28.705Z,13.23
2023-02-23T01:43:30.474Z,12.13
2023-02-23T01:46:33.250Z,12.50
2023-02-23T01:49:35.756Z,13.37
2023-02-23T01:52:38.168Z,12.13
2023-02-23T01:55:39.936Z,11.77
2023-02-23T01:58:43.806Z,12.77
2023-02-23T02:01:45.604Z,14.80
2023-02-23T02:04:52.147Z,13.83
2023-02-23T02:07:59.134Z,13.53
2023-02-23T02:11:00.771Z,14.23
2023-02-23T02:14:12.864Z,13.43
2023-02-23T02:17:45.130Z,14.07
2023-02-23T02:20:53.038Z,11.70
2023-02-23T02:24:13.479Z,10.57
2023-02-23T02:27:28.821Z,10.80
2023-02-23T02:30:37.629Z,10.07
2023-02-23T02:33:45.910Z,12.17
2023-02-23T02:36:57.445Z,9.63
2023-02-23T02:40:16.517Z,12.67
2023-02-23T02:43:22.046Z,11.30
2023-02-23T02:46:27.131Z,10.67
2023-02-23T02:49:28.856Z,12.57
2023-02-23T02:52:35.753Z,11.67
2023-02-23T02:55:39.705Z,9.87
2023-02-23T02:58:43.622Z,11.53
2023-02-23T03:02:05.043Z,11.03
2023-02-23T03:05:37.491Z,11.77
2023-02-23T03:09:18.205Z,11.13
2023-02-23T03:12:57.674Z,16.57
2023-02-23T03:16:25.872Z,9.43
2023-02-23T03:19:50.049Z,9.07
2023-02-23T03:23:16.806Z,9.73
2023-02-23T03:26:53.346Z,9.20
2023-02-23T03:30:29.340Z,11.10
2023-02-23T03:34:05.264Z,11.53
2023-02-23T03:37:32.136Z,9.63
2023-02-23T03:40:53.334Z,9.83
2023-02-23T03:44:19.489Z,10.17
2023-02-23T03:47:42.216Z,8.20
2023-02-23T03:51:12.844Z,10.07
2023-02-23T03:54:56.391Z,11.43
2023-02-23T03:58:20.345Z,8.77
2023-02-23T04:01:42.445Z,10.73
2023-02-23T04:05:04.748Z,13.23
2023-02-23T04:08:26.545Z,8.70
2023-02-23T04:11:49.974Z,9.90
2023-02-23T04:15:06.940Z,11.33
2023-02-23T04:18:12.470Z,13.47
2023-02-23T04:21:14.181Z,10.67
2023-02-23T04:24:15.895Z,20.50
2023-02-23T04:27:17.791Z,11.53
2023-02-23T04:30:20.729Z,12.63
2023-02-23T04:33:24.149Z,15.13
2023-02-23T04:36:26.856Z,19.00
2023-02-23T04:39:28.557Z,12.77
2023-02-23T04:42:30.477Z,11.47
2023-02-23T04:45:32.085Z,18.10
2023-02-23T04:48:33.942Z,15.23
2023-02-23T04:51:36.683Z,11.20
2023-02-23T04:54:39.308Z,16.60
2023-02-23T04:57:41.014Z,13.50
2023-02-23T05:00:42.890Z,17.50
2023-02-23T05:03:44.506Z,12.17
2023-02-23T05:06:46.150Z,12.83
2023-02-23T05:09:47.776Z,11.73
2023-02-23T05:12:49.326Z,14.27
2023-02-23T05:15:51.184Z,14.97
2023-02-23T05:18:52.849Z,12.23
2023-02-23T05:22:00.156Z,11.93
2023-02-23T05:25:01.887Z,12.33
2023-02-23T05:28:03.790Z,11.13
2023-02-23T05:31:05.911Z,19.10
2023-02-23T05:34:07.593Z,18.93
2023-02-23T05:37:16.330Z,12.37
2023-02-23T05:40:18.268Z,13.50
2023-02-23T05:43:19.869Z,12.07
2023-02-23T05:46:24.158Z,14.27
2023-02-23T05:49:25.806Z,15.47
2023-02-23T05:52:27.466Z,17.23
2023-02-23T05:55:29.058Z,14.13
2023-02-23T05:58:31.121Z,14.07
2023-02-23T06:01:33.132Z,13.97
2023-02-23T06:04:35.101Z,12.93
2023-02-23T06:07:37.209Z,13.33
2023-02-23T06:10:38.822Z,10.93
2023-02-23T06:13:40.401Z,11.63
2023-02-23T06:16:45.378Z,11.57
2023-02-23T06:19:47.014Z,10.82
2023-02-23T06:22:48.664Z,12.10
2023-02-23T06:25:50.296Z,19.90
2023-02-23T06:28:51.939Z,19.93
2023-02-23T06:31:53.682Z,19.90
2023-02-23T06:34:55.465Z,20.27
2023-02-23T06:37:57.086Z,21.97
2023-02-23T06:40:58.697Z,30.87
2023-02-23T06:44:00.288Z,31.30
2023-02-23T06:47:03.781Z,29.67
2023-02-23T06:50:06.888Z,28.83
2023-02-23T06:53:08.502Z,25.40
2023-02-23T06:56:12.431Z,29.33
2023-02-23T06:59:14.219Z,30.57
2023-02-23T07:02:15.911Z,35.47
2023-02-23T07:05:17.482Z,43.30
2023-02-23T07:08:19.160Z,34.77
2023-02-23T07:11:21.193Z,42.53
2023-02-23T07:14:26.976Z,38.23
2023-02-23T07:17:28.934Z,41.40
2023-02-23T07:20:31.403Z,36.40
2023-02-23T07:23:33.098Z,31.17
2023-02-23T07:26:34.991Z,31.93
2023-02-23T07:29:36.531Z,28.10
2023-02-23T07:32:38.199Z,27.87
2023-02-23T07:35:39.846Z,22.87
2023-02-23T07:38:41.406Z,20.53
2023-02-23T07:41:43.074Z,19.97
2023-02-23T07:44:52.889Z,24.87
2023-02-23T07:47:54.665Z,28.20
2023-02-23T07:50:56.603Z,25.80
2023-02-23T07:54:01.895Z,29.43
2023-02-23T07:57:03.606Z,26.67
2023-02-23T08:00:06.338Z,30.53
2023-02-23T08:03:14.102Z,24.67
2023-02-23T08:06:19.456Z,19.03
2023-02-23T08:09:22.949Z,16.53
2023-02-23T08:12:24.626Z,16.50
2023-02-23T08:15:26.400Z,17.83
2023-02-23T08:18:28.191Z,17.37
2023-02-23T08:21:31.780Z,16.40
2023-02-23T08:24:33.419Z,14.23
2023-02-23T08:27:35.725Z,23.97
2023-02-23T08:30:37.482Z,34.90
2023-02-23T08:33:39.309Z,23.17
2023-02-23T08:36:40.893Z,15.43
2023-02-23T08:39:44.137Z,14.87
2023-02-23T08:42:45.748Z,21.43
2023-02-23T08:45:47.994Z,23.90
2023-02-23T08:48:49.716Z,39.23
2023-02-23T08:51:51.611Z,20.87
2023-02-23T08:54:53.243Z,40.27
2023-02-23T08:57:54.925Z,18.83
2023-02-23T09:00:56.734Z,30.77
2023-02-23T09:03:59.141Z,13.53
2023-02-23T09:07:01.345Z,42.53
2023-02-23T09:10:03.019Z,17.60
2023-02-23T09:13:04.755Z,21.63
2023-02-23T09:16:07.805Z,13.03
2023-02-23T09:19:09.447Z,21.07
2023-02-23T09:22:11.123Z,21.60
2023-02-23T09:25:12.890Z,24.93
2023-02-23T09:28:15.393Z,20.08
2023-02-23T09:31:19.119Z,9.03
2023-02-23T09:34:20.960Z,16.07
2023-02-23T09:37:22.592Z,18.27
2023-02-23T09:40:25.822Z,19.27
2023-02-23T09:43:47.808Z,29.03
2023-02-23T09:46:49.514Z,13.33
2023-02-23T09:49:51.927Z,22.33
2023-02-23T09:53:16.791Z,59.07
2023-02-23T09:56:18.373Z,21.83
2023-02-23T09:59:21.821Z,11.77
2023-02-23T10:02:24.823Z,14.23
2023-02-23T10:05:31.707Z,14.23
2023-02-23T10:08:36.420Z,11.23
2023-02-23T10:11:46.441Z,9.93
2023-02-23T10:14:57.298Z,9.07
2023-02-23T10:18:08.380Z,9.40
2023-02-23T10:21:20.210Z,16.30
2023-02-23T10:24:25.423Z,12.83
2023-02-23T10:27:30.839Z,12.57
2023-02-23T10:30:34.126Z,6.40
2023-02-23T10:33:37.376Z,9.10
2023-02-23T10:36:44.541Z,14.23
2023-02-23T10:39:48.028Z,17.80
2023-02-23T10:42:50.067Z,9.83
2023-02-23T10:45:53.215Z,9.17
2023-02-23T10:48:57.062Z,17.90
2023-02-23T10:52:02.861Z,8.43
2023-02-23T10:55:05.483Z,7.77
2023-02-23T10:58:16.996Z,12.67
2023-02-23T11:01:49.066Z,7.37
2023-02-23T11:04:56.963Z,9.73
2023-02-23T11:08:10.861Z,8.30
2023-02-23T11:11:15.820Z,12.77
2023-02-23T11:14:17.678Z,7.27
2023-02-23T11:17:27.729Z,4.93
2023-02-23T11:20:33.461Z,9.27
2023-02-23T11:23:36.162Z,8.27
2023-02-23T11:26:40.035Z,5.33
2023-02-23T11:29:46.861Z,10.23
2023-02-23T11:32:51.321Z,9.00
2023-02-23T11:36:00.116Z,8.47
2023-02-23T11:39:18.240Z,11.40
2023-02-23T11:42:21.314Z,7.57
2023-02-23T11:45:25.207Z,13.87
2023-02-23T11:48:34.625Z,10.97
2023-02-23T11:51:37.505Z,9.60
2023-02-23T11:54:40.683Z,14.97
2023-02-23T11:57:43.143Z,10.67
2023-02-23T12:00:54.807Z,11.63
2023-02-23T12:03:57.827Z,9.87
2023-02-23T12:07:18.241Z,10.93
2023-02-23T12:10:23.663Z,9.90
2023-02-23T12:13:44.291Z,14.30
2023-02-23T12:16:48.253Z,12.07
2023-02-23T12:20:02.451Z,22.93
2023-02-23T12:23:07.798Z,19.90
2023-02-23T12:26:21.505Z,12.63
2023-02-23T12:29:30.423Z,13.30
2023-02-23T12:32:44.440Z,11.80
2023-02-23T12:35:50.268Z,12.03
2023-02-23T12:38:55.026Z,14.30
2023-02-23T12:42:02.704Z,12.37
2023-02-23T12:45:06.611Z,15.47
2023-02-23T12:48:27.081Z,12.90
2023-02-23T12:51:48.963Z,13.83
2023-02-23T12:54:50.644Z,12.03
2023-02-23T12:57:56.684Z,14.10
2023-02-23T13:01:30.711Z,15.43
2023-02-23T13:04:51.042Z,12.73
2023-02-23T13:07:55.354Z,13.90
2023-02-23T13:10:58.744Z,14.77
2023-02-23T13:14:03.422Z,16.87
2023-02-23T13:17:25.662Z,16.67
2023-02-23T13:20:37.156Z,18.17
2023-02-23T13:23:54.582Z,13.03
2023-02-23T13:27:16.369Z,13.37
2023-02-23T13:30:20.773Z,17.37
2023-02-23T13:33:35.217Z,12.57
2023-02-23T13:36:44.169Z,17.63
2023-02-23T13:39:48.841Z,15.03
2023-02-23T13:42:58.862Z,13.20
2023-02-23T13:46:00.591Z,18.43
2023-02-23T13:49:20.416Z,21.10
2023-02-23T13:52:25.101Z,14.33
2023-02-23T13:55:27.386Z,19.43
2023-02-23T13:58:30.825Z,16.37
2023-02-23T14:01:40.080Z,14.37
2023-02-23T14:04:43.082Z,19.37
2023-02-23T14:07:47.013Z,16.90
2023-02-23T14:10:49.063Z,20.63
2023-02-23T14:14:01.891Z,25.83
2023-02-23T14:17:15.816Z,15.03
2023-02-23T14:20:29.893Z,18.67
2023-02-23T14:23:34.912Z,28.27
2023-02-23T14:26:38.224Z,30.60
2023-02-23T14:29:40.979Z,22.77
2023-02-23T14:32:47.338Z,22.30
2023-02-23T14:35:49.616Z,18.60
2023-02-23T14:38:57.223Z,16.37
2023-02-23T14:41:59.960Z,16.90
2023-02-23T14:45:27.411Z,22.80
2023-02-23T14:48:29.119Z,14.57
2023-02-23T14:51:36.824Z,24.43
2023-02-23T14:54:39.454Z,24.13
2023-02-23T14:57:42.405Z,29.97
2023-02-23T15:00:44.055Z,24.30
2023-02-23T15:04:04.718Z,23.43
2023-02-23T15:07:06.796Z,34.77
2023-02-23T15:10:20.438Z,25.80
2023-02-23T15:13:33.218Z,23.30
2023-02-23T15:16:36.403Z,25.07
2023-02-23T15:19:39.335Z,29.70
2023-02-23T15:22:41.784Z,20.30
2023-02-23T15:25:48.081Z,16.90
2023-02-23T15:28:50.039Z,33.07
2023-02-23T15:31:54.322Z,21.87
2023-02-23T15:34:56.232Z,29.00
2023-02-23T15:38:11.245Z,29.97
2023-02-23T15:41:25.801Z,38.07
2023-02-23T15:44:38.349Z,34.97
2023-02-23T15:47:44.222Z,31.63
2023-02-23T15:50:50.759Z,29.60
2023-02-23T15:53:53.392Z,30.80
2023-02-23T15:56:57.174Z,36.63
2023-02-23T16:00:00.660Z,42.27
2023-02-23T16:03:03.276Z,37.07
2023-02-23T16:06:06.882Z,28.03
2023-02-23T16:09:20.988Z,32.00
2023-02-23T16:12:24.874Z,28.97
2023-02-23T16:15:33.080Z,40.33
2023-02-23T16:18:37.197Z,28.00
2023-02-23T16:21:38.897Z,42.10
2023-02-23T16:24:40.554Z,20.80
2023-02-23T16:27:43.059Z,31.97
2023-02-23T16:30:51.161Z,19.40
2023-02-23T16:33:56.876Z,19.17
2023-02-23T16:36:59.828Z,20.03
2023-02-23T16:40:01.484Z,22.47
2023-02-23T16:43:03.157Z,22.20
2023-02-23T16:46:05.088Z,23.67
2023-02-23T16:49:10.159Z,25.20
2023-02-23T16:52:23.769Z,24.40
2023-02-23T16:55:27.054Z,23.10
2023-02-23T16:58:30.746Z,23.23
2023-02-23T17:01:32.471Z,20.90
2023-02-23T17:04:34.192Z,22.97
2023-02-23T17:07:36.635Z,25.93
2023-02-23T17:10:38.338Z,21.80
2023-02-23T17:13:40.069Z,17.93
2023-02-23T17:16:41.755Z,19.57
2023-02-23T17:19:45.549Z,20.83
2023-02-23T17:22:50.359Z,23.40
2023-02-23T17:25:52.036Z,20.83
2023-02-23T17:28:54.099Z,25.50
2023-02-23T17:31:56.067Z,24.63
2023-02-23T17:34:57.854Z,27.13
2023-02-23T17:38:03.241Z,29.30
2023-02-23T17:41:06.673Z,29.37
2023-02-23T17:44:08.466Z,32.00
2023-02-23T17:47:10.237Z,30.13
2023-02-23T17:50:11.950Z,25.50
2023-02-23T17:53:13.699Z,24.47
2023-02-23T17:56:17.824Z,28.13
2023-02-23T17:59:19.582Z,30.90
2023-02-23T18:02:21.478Z,21.93
2023-02-23T18:05:23.130Z,37.93
2023-02-23T18:08:24.767Z,28.93
2023-02-23T18:11:26.798Z,27.10
2023-02-23T18:14:28.702Z,27.20
2023-02-23T18:17:32.520Z,37.30
2023-02-23T18:20:34.127Z,25.13
2023-02-23T18:23:36.082Z,29.07
2023-02-23T18:26:37.739Z,25.17
2023-02-23T18:29:39.495Z,26.93
2023-02-23T18:32:41.368Z,28.37
2023-02-23T18:35:45.034Z,28.17
2023-02-23T18:38:46.924Z,23.20
2023-02-23T18:41:49.215Z,30.70
2023-02-23T18:44:50.932Z,26.07
2023-02-23T18:47:52.741Z,27.03
2023-02-23T18:50:59.251Z,31.57
2023-02-23T18:54:02.297Z,26.47
2023-02-23T18:57:05.703Z,26.83
2023-02-23T19:00:10.758Z,24.93
2023-02-23T19:03:12.995Z,29.27
2023-02-23T19:06:16.191Z,29.30
2023-02-23T19:09:19.614Z,25.43
2023-02-23T19:12:21.170Z,25.10
2023-02-23T19:15:22.818Z,26.87
2023-02-23T19:18:25.772Z,26.90
2023-02-23T19:21:27.773Z,31.03
2023-02-23T19:24:29.524Z,31.80
2023-02-23T19:27:31.846Z,28.23
2023-02-23T19:30:33.394Z,27.30
2023-02-23T19:33:35.138Z,28.57
2023-02-23T19:36:37.055Z,31.47
2023-02-23T19:39:39.322Z,27.30
2023-02-23T19:42:45.814Z,28.47
2023-02-23T19:45:48.427Z,27.67
2023-02-23T19:48:53.457Z,22.13
2023-02-23T19:51:55.205Z,27.03
2023-02-23T19:54:56.815Z,23.90
2023-02-23T19:57:58.491Z,26.70
2023-02-23T20:01:07.116Z,28.13
2023-02-23T20:04:09.831Z,23.97
2023-02-23T20:07:11.590Z,23.73
2023-02-23T20:10:16.586Z,36.30
2023-02-23T20:13:19.259Z,77.77
2023-02-23T20:16:21.578Z,21.97
2023-02-23T20:19:23.253Z,19.93
2023-02-23T20:22:24.968Z,19.37
2023-02-23T20:25:27.325Z,21.13
2023-02-23T20:28:28.929Z,16.60
2023-02-23T20:31:35.176Z,20.07
2023-02-23T20:34:39.228Z,19.13
2023-02-23T20:37:41.344Z,15.53
2023-02-23T20:40:42.995Z,19.10
2023-02-23T20:43:45.051Z,16.13
2023-02-23T20:46:46.925Z,16.37
2023-02-23T20:49:48.776Z,12.97
2023-02-23T20:52:50.450Z,18.07
2023-02-23T20:55:52.733Z,14.70
2023-02-23T20:58:54.528Z,15.37
2023-02-23T21:01:56.266Z,12.17
2023-02-23T21:04:57.856Z,15.53
2023-02-23T21:08:01.060Z,19.13
2023-02-23T21:11:06.195Z,18.10
2023-02-23T21:14:08.498Z,12.80
2023-02-23T21:17:10.794Z,18.43
2023-02-23T21:20:13.004Z,18.20
2023-02-23T21:23:17.603Z,18.57
2023-02-23T21:26:21.760Z,15.10
2023-02-23T21:29:23.892Z,17.67
2023-02-23T21:32:27.117Z,14.17
2023-02-23T21:35:28.819Z,18.83
2023-02-23T21:38:30.481Z,14.23
2023-02-23T21:41:37.892Z,16.43
2023-02-23T21:44:39.571Z,17.90
2023-02-23T21:47:42.830Z,19.23
2023-02-23T21:50:44.566Z,16.67
2023-02-23T21:53:46.552Z,19.00
2023-02-23T21:56:49.506Z,16.73
2023-02-23T21:59:51.505Z,16.73
2023-02-23T22:02:53.253Z,15.63
2023-02-23T22:05:54.913Z,15.63
2023-02-23T22:08:56.846Z,16.73
2023-02-23T22:11:58.463Z,21.27
2023-02-23T22:15:02.556Z,17.97
2023-02-23T22:18:04.160Z,14.97
2023-02-23T22:21:05.970Z,12.87
2023-02-23T22:24:08.675Z,15.23
2023-02-23T22:27:10.466Z,13.80
2023-02-23T22:30:12.505Z,14.30
2023-02-23T22:33:14.346Z,11.93
2023-02-23T22:36:18.412Z,16.33
2023-02-23T22:39:20.130Z,13.10
2023-02-23T22:42:24.488Z,18.43
2023-02-23T22:45:26.176Z,13.40
2023-02-23T22:48:28.859Z,18.47
2023-02-23T22:51:30.674Z,13.70
2023-02-23T22:54:35.340Z,16.27
2023-02-23T22:57:37.102Z,16.87
2023-02-23T23:00:38.690Z,18.43
2023-02-23T23:03:47.321Z,14.33
2023-02-23T23:06:49.603Z,16.63
2023-02-23T23:09:51.716Z,15.23
2023-02-23T23:12:53.355Z,15.67
2023-02-23T23:15:57.730Z,14.63
2023-02-23T23:19:12.285Z,12.33
2023-02-23T23:22:14.308Z,14.87
2023-02-23T23:25:15.953Z,10.33
2023-02-23T23:28:19.036Z,7.40
2023-02-23T23:31:28.091Z,8.40
2023-02-23T23:34:33.483Z,8.07
2023-02-23T23:37:35.661Z,6.57
2023-02-23T23:40:38.008Z,8.50
2023-02-23T23:43:43.056Z,5.73
2023-02-23T23:46:45.163Z,7.23
2023-02-23T23:49:46.742Z,5.70
2023-02-23T23:52:50.515Z,9.30
2023-02-23T23:55:52.473Z,5.20
2023-02-23T23:58:54.243Z,4.43
